sensor_id;sensor_type;location;lat;lon;timestamp;temperature;humidity
21425;DHT22;10873;51.132;16.848;2023-03-01T00:01:24;23.10;38.80
21425;DHT22;10873;51.132;16.848;2023-03-01T00:03:51;23.10;38.80
21425;DHT22;10873;51.132;16.848;2023-03-01T00:06:18;23.10;38.80
21425;DHT22;10873;51.132;16.848;2023-03-01T00:08:44;23.10;38.80
21425;DHT22;10873;51.132;16.848;2023-03-01T00:11:13;23.10;38.90
21425;DHT22;10873;51.132;16.848;2023-03-01T00:13:40;23.10;38.90
21425;DHT22;10873;51.132;16.848;2023-03-01T00:16:08;23.10;39.00
21425;DHT22;10873;51.132;16.848;2023-03-01T00:18:36;23.10;39.00
21425;DHT22;10873;51.132;16.848;2023-03-01T00:21:02;23.10;39.00
21425;DHT22;10873;51.132;16.848;2023-03-01T00:23:28;23.10;38.90
21425;DHT22;10873;51.132;16.848;2023-03-01T00:25:55;23.10;38.80
21425;DHT22;10873;51.132;16.848;2023-03-01T00:28:21;23.10;38.80
21425;DHT22;10873;51.132;16.848;2023-03-01T00:30:47;23.10;38.70
21425;DHT22;10873;51.132;16.848;2023-03-01T00:33:13;23.10;38.70
21425;DHT22;10873;51.132;16.848;2023-03-01T00:35:41;23.10;38.70
21425;DHT22;10873;51.132;16.848;2023-03-01T00:38:07;23.10;38.80
21425;DHT22;10873;51.132;16.848;2023-03-01T00:40:34;23.10;38.80
21425;DHT22;10873;51.132;16.848;2023-03-01T00:43:01;23.10;38.90
21425;DHT22;10873;51.132;16.848;2023-03-01T00:45:27;23.10;38.90
21425;DHT22;10873;51.132;16.848;2023-03-01T00:47:53;23.10;38.80
21425;DHT22;10873;51.132;16.848;2023-03-01T00:50:20;23.10;38.70
21425;DHT22;10873;51.132;16.848;2023-03-01T00:52:52;23.10;38.60
21425;DHT22;10873;51.132;16.848;2023-03-01T00:55:18;23.10;38.60
21425;DHT22;10873;51.132;16.848;2023-03-01T00:57:44;23.10;38.70
21425;DHT22;10873;51.132;16.848;2023-03-01T01:00:11;23.10;38.50
21425;DHT22;10873;51.132;16.848;2023-03-01T01:02:37;23.10;38.60
21425;DHT22;10873;51.132;16.848;2023-03-01T01:05:04;23.10;38.70
21425;DHT22;10873;51.132;16.848;2023-03-01T01:07:30;23.10;38.70
21425;DHT22;10873;51.132;16.848;2023-03-01T01:09:58;23.10;38.70
21425;DHT22;10873;51.132;16.848;2023-03-01T01:12:24;23.10;38.70
21425;DHT22;10873;51.132;16.848;2023-03-01T01:14:50;23.10;38.60
21425;DHT22;10873;51.132;16.848;2023-03-01T01:17:16;23.10;38.50
21425;DHT22;10873;51.132;16.848;2023-03-01T01:19:42;23.10;38.50
21425;DHT22;10873;51.132;16.848;2023-03-01T01:22:08;23.10;38.40
21425;DHT22;10873;51.132;16.848;2023-03-01T01:24:35;23.10;38.40
21425;DHT22;10873;51.132;16.848;2023-03-01T01:27:02;23.10;38.40
21425;DHT22;10873;51.132;16.848;2023-03-01T01:29:28;23.10;38.40
21425;DHT22;10873;51.132;16.848;2023-03-01T01:31:54;23.10;38.40
21425;DHT22;10873;51.132;16.848;2023-03-01T01:34:21;23.10;39.20
21425;DHT22;10873;51.132;16.848;2023-03-01T01:36:48;23.10;38.50
21425;DHT22;10873;51.132;16.848;2023-03-01T01:39:15;23.10;38.50
21425;DHT22;10873;51.132;16.848;2023-03-01T01:41:41;23.10;38.50
21425;DHT22;10873;51.132;16.848;2023-03-01T01:44:13;23.10;38.40
21425;DHT22;10873;51.132;16.848;2023-03-01T01:46:41;23.10;38.40
21425;DHT22;10873;51.132;16.848;2023-03-01T01:49:19;23.10;38.30
21425;DHT22;10873;51.132;16.848;2023-03-01T01:51:49;23.10;38.30
21425;DHT22;10873;51.132;16.848;2023-03-01T01:54:20;23.10;38.20
21425;DHT22;10873;51.132;16.848;2023-03-01T01:56:51;23.10;38.20
21425;DHT22;10873;51.132;16.848;2023-03-01T01:59:21;23.10;38.20
21425;DHT22;10873;51.132;16.848;2023-03-01T02:01:50;23.10;38.30
21425;DHT22;10873;51.132;16.848;2023-03-01T02:04:16;23.00;38.30
21425;DHT22;10873;51.132;16.848;2023-03-01T02:06:48;23.10;38.40
21425;DHT22;10873;51.132;16.848;2023-03-01T02:09:19;23.10;38.40
21425;DHT22;10873;51.132;16.848;2023-03-01T02:11:47;23.10;38.30
21425;DHT22;10873;51.132;16.848;2023-03-01T02:14:14;23.10;38.20
21425;DHT22;10873;51.132;16.848;2023-03-01T02:16:42;23.10;38.20
21425;DHT22;10873;51.132;16.848;2023-03-01T02:19:13;23.10;38.20
21425;DHT22;10873;51.132;16.848;2023-03-01T02:21:45;23.10;38.10
21425;DHT22;10873;51.132;16.848;2023-03-01T02:24:24;23.10;38.10
21425;DHT22;10873;51.132;16.848;2023-03-01T02:26:55;23.10;38.10
21425;DHT22;10873;51.132;16.848;2023-03-01T02:29:23;23.10;38.20
21425;DHT22;10873;51.132;16.848;2023-03-01T02:31:51;23.00;38.10
21425;DHT22;10873;51.132;16.848;2023-03-01T02:34:21;23.10;38.20
21425;DHT22;10873;51.132;16.848;2023-03-01T02:36:50;23.10;38.20
21425;DHT22;10873;51.132;16.848;2023-03-01T02:39:21;23.10;38.20
21425;DHT22;10873;51.132;16.848;2023-03-01T02:41:51;23.10;38.20
21425;DHT22;10873;51.132;16.848;2023-03-01T02:44:18;23.10;38.10
21425;DHT22;10873;51.132;16.848;2023-03-01T02:46:47;23.10;38.00
21425;DHT22;10873;51.132;16.848;2023-03-01T02:49:23;23.10;38.00
21425;DHT22;10873;51.132;16.848;2023-03-01T02:52:00;23.10;38.00
21425;DHT22;10873;51.132;16.848;2023-03-01T02:54:36;23.10;38.00
21425;DHT22;10873;51.132;16.848;2023-03-01T02:57:04;23.10;38.00
21425;DHT22;10873;51.132;16.848;2023-03-01T02:59:32;23.00;38.00
21425;DHT22;10873;51.132;16.848;2023-03-01T03:02:08;23.10;38.00
21425;DHT22;10873;51.132;16.848;2023-03-01T03:04:46;23.00;38.10
21425;DHT22;10873;51.132;16.848;2023-03-01T03:07:12;23.00;38.00
21425;DHT22;10873;51.132;16.848;2023-03-01T03:09:38;23.10;38.70
21425;DHT22;10873;51.132;16.848;2023-03-01T03:12:05;23.10;38.00
21425;DHT22;10873;51.132;16.848;2023-03-01T03:14:31;23.10;37.90
21425;DHT22;10873;51.132;16.848;2023-03-01T03:17:00;23.10;37.90
21425;DHT22;10873;51.132;16.848;2023-03-01T03:19:28;23.10;37.90
21425;DHT22;10873;51.132;16.848;2023-03-01T03:21:53;23.10;38.50
21425;DHT22;10873;51.132;16.848;2023-03-01T03:24:20;23.10;37.80
21425;DHT22;10873;51.132;16.848;2023-03-01T03:26:46;23.10;37.80
21425;DHT22;10873;51.132;16.848;2023-03-01T03:29:12;23.10;37.90
21425;DHT22;10873;51.132;16.848;2023-03-01T03:31:38;23.10;37.90
21425;DHT22;10873;51.132;16.848;2023-03-01T03:34:04;23.00;37.80
21425;DHT22;10873;51.132;16.848;2023-03-01T03:36:32;23.10;37.90
21425;DHT22;10873;51.132;16.848;2023-03-01T03:38:58;23.10;37.90
21425;DHT22;10873;51.132;16.848;2023-03-01T03:41:24;23.10;37.80
21425;DHT22;10873;51.132;16.848;2023-03-01T03:43:50;23.10;37.80
21425;DHT22;10873;51.132;16.848;2023-03-01T03:46:16;23.10;37.70
21425;DHT22;10873;51.132;16.848;2023-03-01T03:48:44;23.00;37.70
21425;DHT22;10873;51.132;16.848;2023-03-01T03:51:11;23.10;37.70
21425;DHT22;10873;51.132;16.848;2023-03-01T03:53:39;23.10;37.70
21425;DHT22;10873;51.132;16.848;2023-03-01T03:56:06;23.10;37.70
21425;DHT22;10873;51.132;16.848;2023-03-01T03:58:32;23.00;37.70
21425;DHT22;10873;51.132;16.848;2023-03-01T04:00:59;23.10;37.80
21425;DHT22;10873;51.132;16.848;2023-03-01T04:03:28;23.00;37.70
21425;DHT22;10873;51.132;16.848;2023-03-01T04:05:54;23.00;37.80
21425;DHT22;10873;51.132;16.848;2023-03-01T04:08:23;23.00;37.70
21425;DHT22;10873;51.132;16.848;2023-03-01T04:10:52;23.10;37.70
21425;DHT22;10873;51.132;16.848;2023-03-01T04:13:20;23.00;37.70
21425;DHT22;10873;51.132;16.848;2023-03-01T04:15:47;23.00;37.60
21425;DHT22;10873;51.132;16.848;2023-03-01T04:18:15;23.00;37.60
21425;DHT22;10873;51.132;16.848;2023-03-01T04:20:43;23.00;37.60
21425;DHT22;10873;51.132;16.848;2023-03-01T04:23:12;23.00;37.50
21425;DHT22;10873;51.132;16.848;2023-03-01T04:25:45;23.00;37.50
21425;DHT22;10873;51.132;16.848;2023-03-01T04:28:13;23.00;37.60
21425;DHT22;10873;51.132;16.848;2023-03-01T04:30:39;23.00;37.60
21425;DHT22;10873;51.132;16.848;2023-03-01T04:33:08;23.00;37.70
21425;DHT22;10873;51.132;16.848;2023-03-01T04:35:35;23.00;37.70
21425;DHT22;10873;51.132;16.848;2023-03-01T04:38:02;23.00;37.60
21425;DHT22;10873;51.132;16.848;2023-03-01T04:40:28;23.00;37.60
21425;DHT22;10873;51.132;16.848;2023-03-01T04:42:54;23.00;37.50
21425;DHT22;10873;51.132;16.848;2023-03-01T04:45:21;23.00;37.50
21425;DHT22;10873;51.132;16.848;2023-03-01T04:47:47;23.00;37.50
21425;DHT22;10873;51.132;16.848;2023-03-01T04:50:15;23.00;37.50
21425;DHT22;10873;51.132;16.848;2023-03-01T04:52:42;23.00;37.50
21425;DHT22;10873;51.132;16.848;2023-03-01T04:55:09;23.00;37.40
21425;DHT22;10873;51.132;16.848;2023-03-01T04:57:35;23.00;37.50
21425;DHT22;10873;51.132;16.848;2023-03-01T05:00:02;23.00;37.50
21425;DHT22;10873;51.132;16.848;2023-03-01T05:02:48;23.00;37.60
21425;DHT22;10873;51.132;16.848;2023-03-01T05:05:26;23.00;37.60
21425;DHT22;10873;51.132;16.848;2023-03-01T05:07:54;23.00;37.60
21425;DHT22;10873;51.132;16.848;2023-03-01T05:10:21;23.00;37.50
21425;DHT22;10873;51.132;16.848;2023-03-01T05:12:48;23.00;37.50
21425;DHT22;10873;51.132;16.848;2023-03-01T05:15:14;23.00;37.50
21425;DHT22;10873;51.132;16.848;2023-03-01T05:17:40;23.00;37.40
21425;DHT22;10873;51.132;16.848;2023-03-01T05:20:09;23.00;37.40
21425;DHT22;10873;51.132;16.848;2023-03-01T05:22:36;23.00;37.50
21425;DHT22;10873;51.132;16.848;2023-03-01T05:25:03;23.00;37.50
21425;DHT22;10873;51.132;16.848;2023-03-01T05:27:29;23.00;37.80
21425;DHT22;10873;51.132;16.848;2023-03-01T05:29:55;23.00;37.90
21425;DHT22;10873;51.132;16.848;2023-03-01T05:32:21;23.00;39.70
21425;DHT22;10873;51.132;16.848;2023-03-01T05:34:47;23.00;40.30
21425;DHT22;10873;51.132;16.848;2023-03-01T05:37:15;23.00;40.50
21425;DHT22;10873;51.132;16.848;2023-03-01T05:39:41;23.00;40.30
21425;DHT22;10873;51.132;16.848;2023-03-01T05:42:10;23.00;40.20
21425;DHT22;10873;51.132;16.848;2023-03-01T05:44:36;23.00;40.10
21425;DHT22;10873;51.132;16.848;2023-03-01T05:47:03;23.00;39.90
21425;DHT22;10873;51.132;16.848;2023-03-01T05:49:29;23.00;39.70
21425;DHT22;10873;51.132;16.848;2023-03-01T05:51:56;23.00;39.70
21425;DHT22;10873;51.132;16.848;2023-03-01T05:54:23;23.00;39.40
21425;DHT22;10873;51.132;16.848;2023-03-01T05:56:49;23.00;39.30
21425;DHT22;10873;51.132;16.848;2023-03-01T05:59:15;23.00;39.20
21425;DHT22;10873;51.132;16.848;2023-03-01T06:01:42;23.00;39.10
21425;DHT22;10873;51.132;16.848;2023-03-01T06:04:08;23.00;39.10
21425;DHT22;10873;51.132;16.848;2023-03-01T06:06:35;23.00;39.00
21425;DHT22;10873;51.132;16.848;2023-03-01T06:09:03;23.00;38.90
21425;DHT22;10873;51.132;16.848;2023-03-01T06:11:31;23.00;38.80
21425;DHT22;10873;51.132;16.848;2023-03-01T06:13:57;23.00;38.70
21425;DHT22;10873;51.132;16.848;2023-03-01T06:16:23;23.00;38.60
21425;DHT22;10873;51.132;16.848;2023-03-01T06:18:48;23.00;38.50
21425;DHT22;10873;51.132;16.848;2023-03-01T06:21:15;23.00;38.50
21425;DHT22;10873;51.132;16.848;2023-03-01T06:23:41;23.00;38.40
21425;DHT22;10873;51.132;16.848;2023-03-01T06:26:08;23.00;38.40
21425;DHT22;10873;51.132;16.848;2023-03-01T06:28:35;23.00;38.50
21425;DHT22;10873;51.132;16.848;2023-03-01T06:31:02;23.00;38.50
21425;DHT22;10873;51.132;16.848;2023-03-01T06:33:28;23.00;38.50
21425;DHT22;10873;51.132;16.848;2023-03-01T06:35:55;23.00;38.50
21425;DHT22;10873;51.132;16.848;2023-03-01T06:38:23;23.00;38.50
21425;DHT22;10873;51.132;16.848;2023-03-01T06:40:54;23.00;38.40
21425;DHT22;10873;51.132;16.848;2023-03-01T06:43:20;23.00;38.40
21425;DHT22;10873;51.132;16.848;2023-03-01T06:45:47;23.00;38.30
21425;DHT22;10873;51.132;16.848;2023-03-01T06:48:13;23.00;38.30
21425;DHT22;10873;51.132;16.848;2023-03-01T06:50:39;23.00;38.30
21425;DHT22;10873;51.132;16.848;2023-03-01T06:53:05;23.00;38.50
21425;DHT22;10873;51.132;16.848;2023-03-01T06:55:32;23.00;38.60
21425;DHT22;10873;51.132;16.848;2023-03-01T06:57:59;23.00;38.70
21425;DHT22;10873;51.132;16.848;2023-03-01T07:00:26;23.00;38.90
21425;DHT22;10873;51.132;16.848;2023-03-01T07:02:54;23.00;39.00
21425;DHT22;10873;51.132;16.848;2023-03-01T07:05:20;23.00;39.10
21425;DHT22;10873;51.132;16.848;2023-03-01T07:07:46;23.10;39.10
21425;DHT22;10873;51.132;16.848;2023-03-01T07:10:13;23.10;39.20
21425;DHT22;10873;51.132;16.848;2023-03-01T07:12:39;23.10;39.10
21425;DHT22;10873;51.132;16.848;2023-03-01T07:15:08;23.10;39.20
21425;DHT22;10873;51.132;16.848;2023-03-01T07:17:35;23.10;39.20
21425;DHT22;10873;51.132;16.848;2023-03-01T07:20:02;23.10;39.30
21425;DHT22;10873;51.132;16.848;2023-03-01T07:22:28;23.10;39.40
21425;DHT22;10873;51.132;16.848;2023-03-01T07:24:54;23.10;39.50
21425;DHT22;10873;51.132;16.848;2023-03-01T07:27:20;23.00;39.50
21425;DHT22;10873;51.132;16.848;2023-03-01T07:29:46;23.10;39.60
21425;DHT22;10873;51.132;16.848;2023-03-01T07:32:12;23.10;39.70
21425;DHT22;10873;51.132;16.848;2023-03-01T07:34:39;23.10;39.70
21425;DHT22;10873;51.132;16.848;2023-03-01T07:37:06;23.10;39.70
21425;DHT22;10873;51.132;16.848;2023-03-01T07:39:32;23.10;39.70
21425;DHT22;10873;51.132;16.848;2023-03-01T07:41:58;23.10;39.70
21425;DHT22;10873;51.132;16.848;2023-03-01T07:44:25;23.10;39.80
21425;DHT22;10873;51.132;16.848;2023-03-01T07:46:51;23.10;39.80
21425;DHT22;10873;51.132;16.848;2023-03-01T07:49:22;23.10;39.90
21425;DHT22;10873;51.132;16.848;2023-03-01T07:51:48;23.10;40.00
21425;DHT22;10873;51.132;16.848;2023-03-01T07:54:15;23.10;40.00
21425;DHT22;10873;51.132;16.848;2023-03-01T07:56:41;23.10;40.10
21425;DHT22;10873;51.132;16.848;2023-03-01T07:59:07;23.10;40.20
21425;DHT22;10873;51.132;16.848;2023-03-01T08:01:33;23.20;40.20
21425;DHT22;10873;51.132;16.848;2023-03-01T08:03:59;23.20;40.20
21425;DHT22;10873;51.132;16.848;2023-03-01T08:06:25;23.20;40.20
21425;DHT22;10873;51.132;16.848;2023-03-01T08:08:51;23.20;40.20
21425;DHT22;10873;51.132;16.848;2023-03-01T08:11:18;23.20;40.20
21425;DHT22;10873;51.132;16.848;2023-03-01T08:13:47;23.20;40.90
21425;DHT22;10873;51.132;16.848;2023-03-01T08:16:15;23.20;40.20
21425;DHT22;10873;51.132;16.848;2023-03-01T08:18:42;23.20;40.20
21425;DHT22;10873;51.132;16.848;2023-03-01T08:21:09;23.20;40.20
21425;DHT22;10873;51.132;16.848;2023-03-01T08:23:36;23.20;40.30
21425;DHT22;10873;51.132;16.848;2023-03-01T08:26:09;23.20;40.40
21425;DHT22;10873;51.132;16.848;2023-03-01T08:28:37;23.20;40.40
21425;DHT22;10873;51.132;16.848;2023-03-01T08:31:13;23.20;40.50
21425;DHT22;10873;51.132;16.848;2023-03-01T08:33:39;23.20;40.50
21425;DHT22;10873;51.132;16.848;2023-03-01T08:36:06;23.30;40.50
21425;DHT22;10873;51.132;16.848;2023-03-01T08:38:33;23.30;40.40
21425;DHT22;10873;51.132;16.848;2023-03-01T08:41:00;23.30;40.40
21425;DHT22;10873;51.132;16.848;2023-03-01T08:43:27;23.30;40.40
21425;DHT22;10873;51.132;16.848;2023-03-01T08:45:54;23.30;40.30
21425;DHT22;10873;51.132;16.848;2023-03-01T08:48:20;23.30;41.00
21425;DHT22;10873;51.132;16.848;2023-03-01T08:50:46;23.30;40.30
21425;DHT22;10873;51.132;16.848;2023-03-01T08:53:12;23.30;40.30
21425;DHT22;10873;51.132;16.848;2023-03-01T08:55:38;23.30;40.30
21425;DHT22;10873;51.132;16.848;2023-03-01T08:58:04;23.30;40.30
21425;DHT22;10873;51.132;16.848;2023-03-01T09:00:30;23.30;40.30
21425;DHT22;10873;51.132;16.848;2023-03-01T09:02:57;23.30;40.40
21425;DHT22;10873;51.132;16.848;2023-03-01T09:05:23;23.30;40.40
21425;DHT22;10873;51.132;16.848;2023-03-01T09:07:49;23.40;40.40
21425;DHT22;10873;51.132;16.848;2023-03-01T09:10:16;23.40;40.40
21425;DHT22;10873;51.132;16.848;2023-03-01T09:12:42;23.40;40.30
21425;DHT22;10873;51.132;16.848;2023-03-01T09:15:09;23.40;40.20
21425;DHT22;10873;51.132;16.848;2023-03-01T09:17:35;23.40;40.20
21425;DHT22;10873;51.132;16.848;2023-03-01T09:20:03;23.40;40.20
21425;DHT22;10873;51.132;16.848;2023-03-01T09:22:33;23.40;40.40
21425;DHT22;10873;51.132;16.848;2023-03-01T09:24:59;23.40;40.20
21425;DHT22;10873;51.132;16.848;2023-03-01T09:27:25;23.40;40.20
21425;DHT22;10873;51.132;16.848;2023-03-01T09:29:51;23.40;40.20
21425;DHT22;10873;51.132;16.848;2023-03-01T09:32:17;23.40;40.20
21425;DHT22;10873;51.132;16.848;2023-03-01T09:34:43;23.40;40.30
21425;DHT22;10873;51.132;16.848;2023-03-01T09:37:32;23.40;40.20
21425;DHT22;10873;51.132;16.848;2023-03-01T09:39:58;23.40;40.30
21425;DHT22;10873;51.132;16.848;2023-03-01T09:42:25;23.50;40.40
21425;DHT22;10873;51.132;16.848;2023-03-01T09:44:54;23.50;40.30
21425;DHT22;10873;51.132;16.848;2023-03-01T09:47:25;23.50;40.30
21425;DHT22;10873;51.132;16.848;2023-03-01T09:49:58;23.50;40.40
21425;DHT22;10873;51.132;16.848;2023-03-01T09:52:35;23.50;40.50
21425;DHT22;10873;51.132;16.848;2023-03-01T09:55:08;23.60;40.50
21425;DHT22;10873;51.132;16.848;2023-03-01T09:57:41;23.60;40.50
21425;DHT22;10873;51.132;16.848;2023-03-01T10:00:31;23.60;40.50
21425;DHT22;10873;51.132;16.848;2023-03-01T10:03:04;23.60;40.60
21425;DHT22;10873;51.132;16.848;2023-03-01T10:05:42;23.60;40.60
21425;DHT22;10873;51.132;16.848;2023-03-01T10:08:33;23.60;40.60
21425;DHT22;10873;51.132;16.848;2023-03-01T10:11:02;23.60;40.60
21425;DHT22;10873;51.132;16.848;2023-03-01T10:13:34;23.60;40.50
21425;DHT22;10873;51.132;16.848;2023-03-01T10:16:09;23.60;40.50
21425;DHT22;10873;51.132;16.848;2023-03-01T10:18:37;23.60;40.50
21425;DHT22;10873;51.132;16.848;2023-03-01T10:21:13;23.60;40.50
21425;DHT22;10873;51.132;16.848;2023-03-01T10:23:42;23.60;40.50
21425;DHT22;10873;51.132;16.848;2023-03-01T10:26:19;23.60;40.40
21425;DHT22;10873;51.132;16.848;2023-03-01T10:28:57;23.60;40.40
21425;DHT22;10873;51.132;16.848;2023-03-01T10:31:26;23.60;40.30
21425;DHT22;10873;51.132;16.848;2023-03-01T10:33:55;23.60;40.40
21425;DHT22;10873;51.132;16.848;2023-03-01T10:36:23;23.60;40.30
21425;DHT22;10873;51.132;16.848;2023-03-01T10:38:53;23.60;40.30
21425;DHT22;10873;51.132;16.848;2023-03-01T10:41:23;23.60;40.30
21425;DHT22;10873;51.132;16.848;2023-03-01T10:43:51;23.60;40.30
21425;DHT22;10873;51.132;16.848;2023-03-01T10:46:28;23.60;40.30
21425;DHT22;10873;51.132;16.848;2023-03-01T10:49:14;23.60;40.30
21425;DHT22;10873;51.132;16.848;2023-03-01T10:51:40;23.60;40.30
21425;DHT22;10873;51.132;16.848;2023-03-01T10:54:17;23.60;40.30
21425;DHT22;10873;51.132;16.848;2023-03-01T10:56:48;23.60;40.30
21425;DHT22;10873;51.132;16.848;2023-03-01T10:59:23;23.60;40.30
21425;DHT22;10873;51.132;16.848;2023-03-01T11:02:15;23.60;40.40
21425;DHT22;10873;51.132;16.848;2023-03-01T11:04:57;23.60;40.50
21425;DHT22;10873;51.132;16.848;2023-03-01T11:07:23;23.60;40.50
21425;DHT22;10873;51.132;16.848;2023-03-01T11:09:50;23.60;40.60
21425;DHT22;10873;51.132;16.848;2023-03-01T11:12:16;23.60;40.60
21425;DHT22;10873;51.132;16.848;2023-03-01T11:14:47;23.60;40.60
21425;DHT22;10873;51.132;16.848;2023-03-01T11:17:17;23.70;40.60
21425;DHT22;10873;51.132;16.848;2023-03-01T11:20:00;23.70;40.60
21425;DHT22;10873;51.132;16.848;2023-03-01T11:22:26;23.70;40.50
21425;DHT22;10873;51.132;16.848;2023-03-01T11:24:55;23.70;40.50
21425;DHT22;10873;51.132;16.848;2023-03-01T11:27:26;23.80;40.50
21425;DHT22;10873;51.132;16.848;2023-03-01T11:29:57;23.80;40.40
21425;DHT22;10873;51.132;16.848;2023-03-01T11:32:26;23.80;40.40
21425;DHT22;10873;51.132;16.848;2023-03-01T11:34:56;23.80;40.30
21425;DHT22;10873;51.132;16.848;2023-03-01T11:37:32;23.80;40.30
21425;DHT22;10873;51.132;16.848;2023-03-01T11:40:11;23.90;40.40
21425;DHT22;10873;51.132;16.848;2023-03-01T11:42:45;23.80;40.30
21425;DHT22;10873;51.132;16.848;2023-03-01T11:45:13;23.80;40.30
21425;DHT22;10873;51.132;16.848;2023-03-01T11:47:49;23.90;40.40
21425;DHT22;10873;51.132;16.848;2023-03-01T11:50:26;23.90;40.40
21425;DHT22;10873;51.132;16.848;2023-03-01T11:53:01;23.90;40.40
21425;DHT22;10873;51.132;16.848;2023-03-01T11:55:58;23.80;40.30
21425;DHT22;10873;51.132;16.848;2023-03-01T11:58:43;23.90;40.40
21425;DHT22;10873;51.132;16.848;2023-03-01T12:01:21;23.90;40.40
21425;DHT22;10873;51.132;16.848;2023-03-01T12:04:07;23.90;40.30
21425;DHT22;10873;51.132;16.848;2023-03-01T12:06:48;23.90;40.30
21425;DHT22;10873;51.132;16.848;2023-03-01T12:09:24;23.90;40.30
21425;DHT22;10873;51.132;16.848;2023-03-01T12:12:11;23.80;40.40
21425;DHT22;10873;51.132;16.848;2023-03-01T12:14:52;23.80;40.50
21425;DHT22;10873;51.132;16.848;2023-03-01T12:17:43;23.80;40.70
21425;DHT22;10873;51.132;16.848;2023-03-01T12:20:22;23.90;40.80
21425;DHT22;10873;51.132;16.848;2023-03-01T12:23:02;23.80;40.70
21425;DHT22;10873;51.132;16.848;2023-03-01T12:25:35;23.80;40.40
21425;DHT22;10873;51.132;16.848;2023-03-01T12:28:30;23.80;40.30
21425;DHT22;10873;51.132;16.848;2023-03-01T12:31:17;23.90;40.40
21425;DHT22;10873;51.132;16.848;2023-03-01T12:33:56;23.80;40.20
21425;DHT22;10873;51.132;16.848;2023-03-01T12:36:44;23.90;40.20
21425;DHT22;10873;51.132;16.848;2023-03-01T12:39:28;23.90;40.10
21425;DHT22;10873;51.132;16.848;2023-03-01T12:42:04;23.80;40.00
21425;DHT22;10873;51.132;16.848;2023-03-01T12:44:47;23.80;40.00
21425;DHT22;10873;51.132;16.848;2023-03-01T12:47:26;23.80;40.00
21425;DHT22;10873;51.132;16.848;2023-03-01T12:49:55;23.80;40.00
21425;DHT22;10873;51.132;16.848;2023-03-01T12:52:27;23.80;39.90
21425;DHT22;10873;51.132;16.848;2023-03-01T12:54:57;23.80;39.90
21425;DHT22;10873;51.132;16.848;2023-03-01T12:57:28;23.80;39.70
21425;DHT22;10873;51.132;16.848;2023-03-01T13:00:17;23.80;39.70
21425;DHT22;10873;51.132;16.848;2023-03-01T13:02:52;23.80;39.70
21425;DHT22;10873;51.132;16.848;2023-03-01T13:05:26;23.90;39.80
21425;DHT22;10873;51.132;16.848;2023-03-01T13:08:00;23.90;39.70
21425;DHT22;10873;51.132;16.848;2023-03-01T13:10:33;23.80;39.70
21425;DHT22;10873;51.132;16.848;2023-03-01T13:13:08;23.80;39.70
21425;DHT22;10873;51.132;16.848;2023-03-01T13:15:38;23.80;39.50
21425;DHT22;10873;51.132;16.848;2023-03-01T13:18:30;23.80;39.50
21425;DHT22;10873;51.132;16.848;2023-03-01T13:20:59;23.80;39.50
21425;DHT22;10873;51.132;16.848;2023-03-01T13:23:28;23.80;39.50
21425;DHT22;10873;51.132;16.848;2023-03-01T13:26:06;23.80;39.50
21425;DHT22;10873;51.132;16.848;2023-03-01T13:28:48;23.80;39.50
21425;DHT22;10873;51.132;16.848;2023-03-01T13:34:46;23.80;39.40
21425;DHT22;10873;51.132;16.848;2023-03-01T13:37:28;23.80;39.40
21425;DHT22;10873;51.132;16.848;2023-03-01T13:39:56;23.80;39.30
21425;DHT22;10873;51.132;16.848;2023-03-01T13:42:39;23.80;39.30
21425;DHT22;10873;51.132;16.848;2023-03-01T13:45:19;23.80;39.30
21425;DHT22;10873;51.132;16.848;2023-03-01T13:47:46;23.90;39.30
21425;DHT22;10873;51.132;16.848;2023-03-01T13:50:21;23.80;39.20
21425;DHT22;10873;51.132;16.848;2023-03-01T13:52:52;23.90;39.40
21425;DHT22;10873;51.132;16.848;2023-03-01T13:55:22;23.90;39.40
21425;DHT22;10873;51.132;16.848;2023-03-01T13:57:53;23.90;39.40
21425;DHT22;10873;51.132;16.848;2023-03-01T14:00:30;24.00;39.30
21425;DHT22;10873;51.132;16.848;2023-03-01T14:03:04;24.00;39.20
21425;DHT22;10873;51.132;16.848;2023-03-01T14:05:33;24.00;39.20
21425;DHT22;10873;51.132;16.848;2023-03-01T14:07:59;24.00;39.20
21425;DHT22;10873;51.132;16.848;2023-03-01T14:10:32;24.00;39.20
21425;DHT22;10873;51.132;16.848;2023-03-01T14:13:10;24.10;39.30
21425;DHT22;10873;51.132;16.848;2023-03-01T14:15:47;24.10;39.30
21425;DHT22;10873;51.132;16.848;2023-03-01T14:18:17;24.10;39.40
21425;DHT22;10873;51.132;16.848;2023-03-01T14:20:47;24.10;39.40
21425;DHT22;10873;51.132;16.848;2023-03-01T14:23:18;24.10;39.30
21425;DHT22;10873;51.132;16.848;2023-03-01T14:25:48;24.10;39.20
21425;DHT22;10873;51.132;16.848;2023-03-01T14:28:16;24.10;39.10
21425;DHT22;10873;51.132;16.848;2023-03-01T14:30:46;24.10;39.30
21425;DHT22;10873;51.132;16.848;2023-03-01T14:33:20;24.10;39.60
21425;DHT22;10873;51.132;16.848;2023-03-01T14:35:55;24.10;39.40
21425;DHT22;10873;51.132;16.848;2023-03-01T14:38:23;24.10;39.40
21425;DHT22;10873;51.132;16.848;2023-03-01T14:40:57;24.10;39.40
21425;DHT22;10873;51.132;16.848;2023-03-01T14:43:24;24.10;39.40
21425;DHT22;10873;51.132;16.848;2023-03-01T14:45:52;24.10;39.40
21425;DHT22;10873;51.132;16.848;2023-03-01T14:48:19;24.10;39.40
21425;DHT22;10873;51.132;16.848;2023-03-01T14:50:45;24.10;39.50
21425;DHT22;10873;51.132;16.848;2023-03-01T14:53:17;24.10;39.40
21425;DHT22;10873;51.132;16.848;2023-03-01T14:55:46;24.10;39.50
21425;DHT22;10873;51.132;16.848;2023-03-01T14:58:16;24.10;39.60
21425;DHT22;10873;51.132;16.848;2023-03-01T15:00:48;24.10;39.60
21425;DHT22;10873;51.132;16.848;2023-03-01T15:03:20;24.10;39.60
21425;DHT22;10873;51.132;16.848;2023-03-01T15:05:49;24.10;39.60
21425;DHT22;10873;51.132;16.848;2023-03-01T15:08:19;24.10;39.50
21425;DHT22;10873;51.132;16.848;2023-03-01T15:10:57;24.10;39.40
21425;DHT22;10873;51.132;16.848;2023-03-01T15:13:25;24.10;39.40
21425;DHT22;10873;51.132;16.848;2023-03-01T15:15:53;24.10;39.30
21425;DHT22;10873;51.132;16.848;2023-03-01T15:18:28;24.10;39.40
21425;DHT22;10873;51.132;16.848;2023-03-01T15:20:54;24.00;39.20
21425;DHT22;10873;51.132;16.848;2023-03-01T15:23:25;24.00;39.30
21425;DHT22;10873;51.132;16.848;2023-03-01T15:25:52;24.10;39.40
21425;DHT22;10873;51.132;16.848;2023-03-01T15:28:24;24.10;39.40
21425;DHT22;10873;51.132;16.848;2023-03-01T15:30:57;24.00;39.40
21425;DHT22;10873;51.132;16.848;2023-03-01T15:33:30;24.00;39.40
21425;DHT22;10873;51.132;16.848;2023-03-01T15:35:57;24.00;39.50